createdAt,value
2022-09-27T00:02:16.738Z,98825.28
2022-09-27T00:04:45.658Z,98826.09
2022-09-27T00:07:15.170Z,98834.19
2022-09-27T00:09:46.003Z,98829.88
2022-09-27T00:12:14.028Z,98831.75
2022-09-27T00:14:42.050Z,98837.16
2022-09-27T00:17:10.815Z,98820.13
2022-09-27T00:19:38.847Z,98830.91
2022-09-27T00:22:06.879Z,98817.69
2022-09-27T00:24:35.320Z,98817.69
2022-09-27T00:27:04.854Z,98810.66
2022-09-27T00:29:32.943Z,98798.22
2022-09-27T00:32:00.939Z,98802.81
2022-09-27T00:34:28.995Z,98798.22
2022-09-27T00:36:56.977Z,98796.63
2022-09-27T00:39:26.509Z,98792.84
2022-09-27T00:41:54.661Z,98782.03
2022-09-27T00:45:02.895Z,98790.13
2022-09-27T00:47:38.039Z,98785.81
2022-09-27T00:50:09.577Z,98769.63
2022-09-27T00:52:42.121Z,98759.63
2022-09-27T00:55:14.371Z,98765.03
2022-09-27T00:57:44.149Z,98756.13
2022-09-27T01:00:15.158Z,98753.44
2022-09-27T01:02:46.956Z,98765.03
2022-09-27T01:05:16.671Z,98749.06
2022-09-27T01:07:45.956Z,98751.78
2022-09-27T01:10:15.608Z,98757.19
2022-09-27T01:12:51.075Z,98751.78
2022-09-27T01:15:24.756Z,98754.47
2022-09-27T01:18:02.222Z,98741.78
2022-09-27T01:21:03.548Z,98738.28
2022-09-27T01:23:58.914Z,98738.56
2022-09-27T01:26:31.810Z,98737.72
2022-09-27T01:29:01.862Z,98732.31
2022-09-27T01:31:33.283Z,98722.88
2022-09-27T01:34:16.609Z,98726.91
2022-09-27T01:36:50.025Z,98726.13
2022-09-27T01:39:24.853Z,98723.41
2022-09-27T01:41:57.454Z,98719.09
2022-09-27T01:44:28.935Z,98718.28
2022-09-27T01:47:01.274Z,98719.09
2022-09-27T01:49:33.602Z,98710.19
2022-09-27T01:52:03.765Z,98708.31
2022-09-27T01:54:35.680Z,98708.31
2022-09-27T01:57:04.800Z,98711.81
2022-09-27T01:59:36.941Z,98699.41
2022-09-27T02:02:09.965Z,98700.22
2022-09-27T02:04:39.510Z,98682.41
2022-09-27T02:07:11.137Z,98691.31
2022-09-27T02:09:42.008Z,98697.50
2022-09-27T02:12:12.742Z,98693.72
2022-09-27T02:14:43.011Z,98692.91
2022-09-27T02:17:16.329Z,98695.63
2022-09-27T02:19:49.482Z,98685.09
2022-09-27T02:22:23.292Z,98699.63
2022-09-27T02:24:54.511Z,98694.00
2022-09-27T02:27:23.834Z,98695.88
2022-09-27T02:29:54.628Z,98695.06
2022-09-27T02:32:24.084Z,98688.03
2022-09-27T02:34:55.763Z,98690.72
2022-09-27T02:37:25.275Z,98683.44
2022-09-27T02:39:55.014Z,98687.22
2022-09-27T02:42:24.325Z,98685.34
2022-09-27T02:44:53.688Z,98689.94
2022-09-27T02:47:40.911Z,98693.44
2022-09-27T02:50:26.512Z,98687.22
2022-09-27T02:52:58.661Z,98675.63
2022-09-27T02:55:31.514Z,98668.59
2022-09-27T02:58:06.208Z,98671.28
2022-09-27T03:00:36.096Z,98672.94
2022-09-27T03:03:08.808Z,98675.63
2022-09-27T03:05:39.777Z,98685.34
2022-09-27T03:08:09.146Z,98678.31
2022-09-27T03:10:38.462Z,98681.03
2022-09-27T03:13:06.484Z,98681.03
2022-09-27T03:15:35.682Z,98672.94
2022-09-27T03:18:03.784Z,98664.00
2022-09-27T03:20:34.589Z,98666.44
2022-09-27T03:23:03.940Z,98670.22
2022-09-27T03:25:32.989Z,98663.19
2022-09-27T03:28:02.798Z,98651.59
2022-09-27T03:30:32.293Z,98647.81
2022-09-27T03:33:01.386Z,98649.69
2022-09-27T03:35:30.421Z,98651.59
2022-09-27T03:38:01.111Z,98641.88
2022-09-27T03:40:33.029Z,98636.72
2022-09-27T03:43:02.551Z,98633.78
2022-09-27T03:45:31.845Z,98642.69
2022-09-27T03:48:01.350Z,98637.53
2022-09-27T03:50:30.478Z,98641.03
2022-09-27T03:53:01.273Z,98636.72
2022-09-27T03:55:30.538Z,98629.69
2022-09-27T03:57:59.888Z,98637.53
2022-09-27T04:00:28.988Z,98636.97
2022-09-27T04:03:01.178Z,98632.41
2022-09-27T04:05:30.573Z,98634.25
2022-09-27T04:08:01.176Z,98629.69
2022-09-27T04:10:30.774Z,98627.25
2022-09-27T04:13:00.533Z,98627.25
2022-09-27T04:15:31.758Z,98631.84
2022-09-27T04:18:00.835Z,98630.19
2022-09-27T04:20:30.264Z,98626.44
2022-09-27T04:22:59.502Z,98631.84
2022-09-27T04:25:30.424Z,98634.53
2022-09-27T04:27:59.467Z,98641.00
2022-09-27T04:30:29.482Z,98621.28
2022-09-27T04:32:59.070Z,98625.88
2022-09-27T04:35:45.962Z,98624.78
2022-09-27T04:38:15.531Z,98625.63
2022-09-27T04:40:49.220Z,98629.38
2022-09-27T04:43:18.906Z,98623.19
2022-09-27T04:45:48.309Z,98622.38
2022-09-27T04:48:16.866Z,98626.69
2022-09-27T04:50:44.867Z,98633.97
2022-09-27T04:53:15.212Z,98633.97
2022-09-27T04:55:50.084Z,98646.38
2022-09-27T04:58:19.497Z,98645.56
2022-09-27T05:00:48.776Z,98633.16
2022-09-27T05:03:24.836Z,98630.47
2022-09-27T05:05:53.084Z,98631.53
2022-09-27T05:08:24.604Z,98636.09
2022-09-27T05:11:01.952Z,98635.88
2022-09-27T05:13:31.436Z,98624.25
2022-09-27T05:16:08.803Z,98629.38
2022-09-27T05:18:40.283Z,98623.19
2022-09-27T05:21:11.451Z,98625.88
2022-09-27T05:23:43.677Z,98617.78
2022-09-27T05:26:16.867Z,98621.03
2022-09-27T05:28:47.318Z,98604.84
2022-09-27T05:31:16.984Z,98606.47
2022-09-27T05:33:46.305Z,98604.56
2022-09-27T05:36:18.257Z,98611.63
2022-09-27T05:38:47.741Z,98606.22
2022-09-27T05:41:18.574Z,98604.09
2022-09-27T05:43:47.735Z,98601.13
2022-09-27T05:46:17.393Z,98600.88
2022-09-27T05:48:46.562Z,98602.47
2022-09-27T05:51:15.942Z,98594.16
2022-09-27T05:53:45.341Z,98596.56
2022-09-27T05:56:14.343Z,98598.47
2022-09-27T05:58:44.839Z,98595.75
2022-09-27T06:01:12.857Z,98600.06
2022-09-27T06:03:41.235Z,98599.03
2022-09-27T06:06:10.720Z,98598.75
2022-09-27T06:08:39.409Z,98595.22
2022-09-27T06:11:08.231Z,98598.50
2022-09-27T06:13:36.357Z,98596.88
2022-09-27T06:16:06.198Z,98592.28
2022-09-27T06:18:34.240Z,98606.59
2022-09-27T06:21:02.287Z,98604.69
2022-09-27T06:23:32.745Z,98606.34
2022-09-27T06:26:02.528Z,98606.34
2022-09-27T06:28:30.617Z,98605.00
2022-09-27T06:31:00.503Z,98603.94
2022-09-27T06:33:29.975Z,98592.56
2022-09-27T06:35:58.058Z,98594.75
2022-09-27T06:38:26.151Z,98591.00
2022-09-27T06:40:54.196Z,98606.09
2022-09-27T06:43:22.250Z,98605.84
2022-09-27T06:45:50.553Z,98603.97
2022-09-27T06:48:18.664Z,98597.50
2022-09-27T06:50:49.138Z,98592.09
2022-09-27T06:53:17.733Z,98595.59
2022-09-27T06:55:45.759Z,98595.34
2022-09-27T06:58:30.870Z,98592.66
2022-09-27T07:00:59.140Z,98595.09
2022-09-27T07:03:35.526Z,98589.69
2022-09-27T07:06:07.189Z,98589.16
2022-09-27T07:08:36.085Z,98591.88
2022-09-27T07:11:05.413Z,98584.34
2022-09-27T07:13:34.668Z,98591.09
2022-09-27T07:16:03.252Z,98590.81
2022-09-27T07:18:31.380Z,98590.56
2022-09-27T07:21:00.884Z,98595.97
2022-09-27T07:23:30.354Z,98595.44
2022-09-27T07:25:59.212Z,98587.06
2022-09-27T07:28:27.241Z,98582.50
2022-09-27T07:30:56.538Z,98582.22
2022-09-27T07:33:24.693Z,98574.13
2022-09-27T07:35:52.691Z,98570.38
2022-09-27T07:38:20.702Z,98576.56
2022-09-27T07:40:50.310Z,98575.78
2022-09-27T07:43:19.588Z,98581.72
2022-09-27T07:45:47.780Z,98582.56
2022-09-27T07:48:16.395Z,98566.59
2022-09-27T07:50:44.504Z,98572.28
2022-09-27T07:53:13.953Z,98560.44
2022-09-27T07:55:42.509Z,98569.06
2022-09-27T07:58:13.750Z,98558.00
2022-09-27T08:00:42.020Z,98556.91
2022-09-27T08:03:11.274Z,98556.91
2022-09-27T08:05:42.138Z,98567.47
2022-09-27T08:08:10.255Z,98574.47
2022-09-27T08:10:39.901Z,98567.22
2022-09-27T08:13:08.367Z,98569.13
2022-09-27T08:15:39.255Z,98572.41
2022-09-27T08:18:07.926Z,98561.06
2022-09-27T08:20:35.960Z,98559.72
2022-09-27T08:23:04.426Z,98568.38
2022-09-27T08:25:32.555Z,98569.75
2022-09-27T08:28:01.457Z,98568.13
2022-09-27T08:30:31.252Z,98564.91
2022-09-27T08:33:02.503Z,98564.06
2022-09-27T08:35:30.567Z,98548.41
2022-09-27T08:37:59.808Z,98540.88
2022-09-27T08:40:31.557Z,98537.91
2022-09-27T08:43:02.966Z,98537.38
2022-09-27T08:45:32.617Z,98531.97
2022-09-27T08:48:02.660Z,98526.81
2022-09-27T08:50:32.666Z,98520.06
2022-09-27T08:53:04.041Z,98517.94
2022-09-27T08:55:36.992Z,98521.19
2022-09-27T08:58:06.275Z,98523.34
2022-09-27T09:00:34.452Z,98516.28
2022-09-27T09:03:04.062Z,98520.09
2022-09-27T09:05:33.536Z,98517.41
2022-09-27T09:08:14.716Z,98504.94
2022-09-27T09:11:07.248Z,98518.22
2022-09-27T09:13:46.728Z,98510.66
2022-09-27T09:16:18.235Z,98507.66
2022-09-27T09:18:56.569Z,98500.91
2022-09-27T09:21:28.905Z,98508.75
2022-09-27T09:24:17.972Z,98505.25
2022-09-27T09:26:49.230Z,98493.34
2022-09-27T09:29:41.762Z,98486.59
2022-09-27T09:32:14.064Z,98476.31
2022-09-27T09:34:43.944Z,98481.44
2022-09-27T09:37:14.092Z,98485.00
2022-09-27T09:39:43.983Z,98468.22
2022-09-27T09:42:13.854Z,98471.22
2022-09-27T09:44:46.915Z,98476.91
2022-09-27T09:47:26.512Z,98487.19
2022-09-27T09:49:57.160Z,98483.13
2022-09-27T09:52:26.823Z,98481.22
2022-09-27T09:54:56.816Z,98480.69
2022-09-27T09:57:26.584Z,98483.94
2022-09-27T09:59:58.464Z,98472.03
2022-09-27T10:02:31.263Z,98477.44
2022-09-27T10:05:05.252Z,98474.19
2022-09-27T10:07:35.643Z,98470.94
2022-09-27T10:10:04.243Z,98469.59
2022-09-27T10:12:32.315Z,98467.41
2022-09-27T10:15:01.340Z,98462.00
2022-09-27T10:17:37.504Z,98464.44
2022-09-27T10:20:07.945Z,98464.44
2022-09-27T10:22:37.866Z,98465.78
2022-09-27T10:25:08.021Z,98458.75
2022-09-27T10:27:40.452Z,98462.00
2022-09-27T10:30:14.689Z,98462.53
2022-09-27T10:32:42.725Z,98459.56
2022-09-27T10:35:36.902Z,98449.00
2022-09-27T10:38:22.385Z,98449.25
2022-09-27T10:40:50.653Z,98448.19
2022-09-27T10:43:29.654Z,98440.63
2022-09-27T10:46:13.881Z,98440.06
2022-09-27T10:48:42.974Z,98434.09
2022-09-27T10:51:24.154Z,98434.66
2022-09-27T10:53:52.192Z,98430.84
2022-09-27T10:56:30.545Z,98434.09
2022-09-27T10:58:59.985Z,98426.78
2022-09-27T11:01:28.152Z,98422.47
2022-09-27T11:03:56.689Z,98414.63
2022-09-27T11:06:32.173Z,98421.94
2022-09-27T11:09:12.221Z,98417.88
2022-09-27T11:11:40.350Z,98420.84
2022-09-27T11:14:20.005Z,98422.75
2022-09-27T11:17:01.331Z,98422.75
2022-09-27T11:19:44.469Z,98411.13
2022-09-27T11:22:23.127Z,98401.41
2022-09-27T11:24:59.421Z,98391.63
2022-09-27T11:27:32.975Z,98397.06
2022-09-27T11:30:06.259Z,98386.53
2022-09-27T11:32:58.539Z,98384.88
2022-09-27T11:35:38.002Z,98388.38
2022-09-27T11:38:29.621Z,98372.44
2022-09-27T11:41:16.229Z,98366.50
2022-09-27T11:44:04.053Z,98359.47
2022-09-27T11:46:40.217Z,98362.69
2022-09-27T11:49:32.410Z,98352.16
2022-09-27T11:52:14.786Z,98359.72
2022-09-27T11:54:51.756Z,98361.09
2022-09-27T11:57:23.215Z,98359.50
2022-09-27T12:00:05.909Z,98354.63
2022-09-27T12:02:58.797Z,98349.22
2022-09-27T12:05:27.210Z,98346.50
2022-09-27T12:08:01.910Z,98343.81
2022-09-27T12:10:31.294Z,98340.81
2022-09-27T12:12:59.413Z,98338.13
2022-09-27T12:15:30.267Z,98328.94
2022-09-27T12:18:01.854Z,98322.69
2022-09-27T12:20:31.157Z,98319.72
2022-09-27T12:23:01.491Z,98315.09
2022-09-27T12:25:33.294Z,98320.53
2022-09-27T12:28:04.302Z,98325.13
2022-09-27T12:30:32.803Z,98325.94
2022-09-27T12:33:05.776Z,98329.19
2022-09-27T12:35:35.640Z,98331.06
2022-09-27T12:38:04.716Z,98344.31
2022-09-27T12:40:34.919Z,98350.00
2022-09-27T12:43:05.862Z,98364.34
2022-09-27T12:45:45.751Z,98372.47
2022-09-27T12:48:19.125Z,98376.22
2022-09-27T12:50:54.387Z,98384.34
2022-09-27T12:53:24.913Z,98391.66
2022-09-27T12:56:09.456Z,98419.50
2022-09-27T12:59:01.470Z,98445.75
2022-09-27T13:01:37.728Z,98489.84
2022-09-27T13:04:18.266Z,98489.84
2022-09-27T13:07:00.777Z,98493.66
2022-09-27T13:09:56.893Z,98502.31
2022-09-27T13:12:27.003Z,98489.84
2022-09-27T13:15:00.434Z,98498.81
2022-09-27T13:17:50.929Z,98488.50
2022-09-27T13:20:49.236Z,98495.25
2022-09-27T13:23:50.839Z,98487.16
2022-09-27T13:27:01.562Z,98493.94
2022-09-27T13:29:36.933Z,98478.53
2022-09-27T13:32:16.279Z,98474.72
2022-09-27T13:34:47.435Z,98476.06
2022-09-27T13:37:40.045Z,98470.94
2022-09-27T13:40:32.725Z,98480.69
2022-09-27T13:43:18.077Z,98475.25
2022-09-27T13:45:55.180Z,98480.69
2022-09-27T13:48:26.434Z,98471.50
2022-09-27T13:50:56.378Z,98469.31
2022-09-27T13:53:27.083Z,98455.53
2022-09-27T13:55:55.036Z,98447.97
2022-09-27T13:58:47.610Z,98434.69
2022-09-27T14:01:22.345Z,98446.06
2022-09-27T14:03:53.569Z,98439.28
2022-09-27T14:06:22.581Z,98433.59
2022-09-27T14:08:54.224Z,98444.16
2022-09-27T14:11:24.653Z,98439.00
2022-09-27T14:14:02.145Z,98436.31
2022-09-27T14:16:34.052Z,98438.19
2022-09-27T14:19:02.569Z,98449.81
2022-09-27T14:21:32.415Z,98450.91
2022-09-27T14:24:26.452Z,98458.22
2022-09-27T14:27:07.546Z,98446.03
2022-09-27T14:29:41.569Z,98437.63
2022-09-27T14:32:13.240Z,98446.03
2022-09-27T14:34:41.113Z,98439.53
2022-09-27T14:37:25.947Z,98437.91
2022-09-27T14:39:58.452Z,98439.22
2022-09-27T14:42:27.192Z,98434.59
2022-09-27T14:44:55.640Z,98433.50
2022-09-27T14:47:25.899Z,98433.50
2022-09-27T14:49:55.312Z,98420.19
2022-09-27T14:52:27.844Z,98428.53
2022-09-27T14:55:00.151Z,98424.69
2022-09-27T14:57:29.617Z,98427.34
2022-09-27T14:59:59.745Z,98428.97
2022-09-27T15:02:28.997Z,98433.81
2022-09-27T15:04:56.900Z,98441.38
2022-09-27T15:07:24.847Z,98451.13
2022-09-27T15:09:52.929Z,98444.09
2022-09-27T15:12:26.003Z,98456.53
2022-09-27T15:14:56.140Z,98473.34
2022-09-27T15:17:25.340Z,98474.72
2022-09-27T15:20:04.721Z,98484.25
2022-09-27T15:22:37.818Z,98486.44
2022-09-27T15:25:09.171Z,98485.38
2022-09-27T15:27:37.352Z,98489.19
2022-09-27T15:30:06.341Z,98491.13
2022-09-27T15:32:34.373Z,98485.47
2022-09-27T15:35:09.165Z,98490.88
2022-09-27T15:37:37.846Z,98497.41
2022-09-27T15:40:32.004Z,98503.88
2022-09-27T15:43:55.931Z,98503.34
2022-09-27T15:46:29.656Z,98513.38
2022-09-27T15:49:22.396Z,98514.75
2022-09-27T15:51:51.948Z,98504.72
2022-09-27T15:54:20.862Z,98517.72
2022-09-27T15:56:54.466Z,98514.75
2022-09-27T15:59:25.690Z,98514.50
2022-09-27T16:01:56.491Z,98508.00
2022-09-27T16:04:24.460Z,98510.97
2022-09-27T16:06:53.759Z,98515.31
2022-09-27T16:09:22.049Z,98514.75
2022-09-27T16:11:50.377Z,98525.31
2022-09-27T16:14:19.319Z,98515.84
2022-09-27T16:16:47.960Z,98510.97
2022-09-27T16:19:15.992Z,98510.16
2022-09-27T16:21:44.249Z,98515.28
2022-09-27T16:24:13.672Z,98513.94
2022-09-27T16:26:41.581Z,98516.13
2022-09-27T16:29:10.862Z,98513.66
2022-09-27T16:31:38.973Z,98515.00
2022-09-27T16:34:06.992Z,98515.25
2022-09-27T16:36:36.036Z,98516.34
2022-09-27T16:39:05.808Z,98512.28
2022-09-27T16:41:35.818Z,98521.50
2022-09-27T16:44:07.589Z,98513.63
2022-09-27T16:46:35.702Z,98512.03
2022-09-27T16:49:03.845Z,98501.47
2022-09-27T16:51:49.128Z,98497.94
2022-09-27T16:54:17.643Z,98501.75
2022-09-27T16:56:47.095Z,98508.22
2022-09-27T16:59:15.069Z,98510.13
2022-09-27T17:01:42.992Z,98510.38
2022-09-27T17:04:11.040Z,98513.06
2022-09-27T17:06:38.926Z,98522.03
2022-09-27T17:09:06.925Z,98519.56
2022-09-27T17:11:34.827Z,98515.25
2022-09-27T17:14:04.108Z,98526.06
2022-09-27T17:16:32.170Z,98534.44
2022-09-27T17:19:00.114Z,98532.81
2022-09-27T17:21:28.321Z,98537.41
2022-09-27T17:23:56.665Z,98544.44
2022-09-27T17:26:26.955Z,98545.00
2022-09-27T17:28:57.375Z,98538.75
2022-09-27T17:31:26.799Z,98548.50
2022-09-27T17:33:57.840Z,98558.50
2022-09-27T17:36:27.045Z,98547.41
2022-09-27T17:38:55.027Z,98543.88
2022-09-27T17:41:24.203Z,98547.69
2022-09-27T17:43:54.930Z,98552.00
2022-09-27T17:46:24.367Z,98551.44
2022-09-27T17:49:25.593Z,98548.75
2022-09-27T17:51:54.151Z,98544.44
2022-09-27T17:54:23.378Z,98544.44
2022-09-27T17:56:51.364Z,98540.13
2022-09-27T17:59:19.328Z,98539.03
2022-09-27T18:01:47.816Z,98529.31
2022-09-27T18:04:18.628Z,98525.75
2022-09-27T18:06:47.846Z,98534.97
2022-09-27T18:09:17.195Z,98531.44
2022-09-27T18:11:45.346Z,98526.03
2022-09-27T18:14:13.368Z,98532.25
2022-09-27T18:16:43.116Z,98539.56
2022-09-27T18:19:12.037Z,98536.84
2022-09-27T18:21:41.297Z,98537.91
2022-09-27T18:24:10.135Z,98546.88
2022-09-27T18:26:38.943Z,98546.88
2022-09-27T18:29:08.022Z,98550.63
2022-09-27T18:31:36.086Z,98549.03
2022-09-27T18:34:04.121Z,98551.97
2022-09-27T18:36:32.024Z,98546.56
2022-09-27T18:39:02.230Z,98554.69
2022-09-27T18:41:30.954Z,98555.78
2022-09-27T18:44:00.888Z,98556.81
2022-09-27T18:46:35.551Z,98564.94
2022-09-27T18:49:04.486Z,98554.41
2022-09-27T18:51:32.385Z,98569.81
2022-09-27T18:54:02.681Z,98568.72
2022-09-27T18:56:30.610Z,98574.38
2022-09-27T18:58:59.823Z,98577.94
2022-09-27T19:01:27.869Z,98583.84
2022-09-27T19:03:55.875Z,98591.47
2022-09-27T19:06:24.219Z,98592.28
2022-09-27T19:08:54.769Z,98591.97
2022-09-27T19:11:24.181Z,98599.03
2022-09-27T19:13:52.624Z,98600.66
2022-09-27T19:16:23.845Z,98603.34
2022-09-27T19:18:51.845Z,98610.41
2022-09-27T19:21:20.540Z,98605.00
2022-09-27T19:23:48.900Z,98607.41
2022-09-27T19:26:17.827Z,98609.06
2022-09-27T19:28:47.158Z,98607.16
2022-09-27T19:31:16.079Z,98604.47
2022-09-27T19:33:44.045Z,98613.38
2022-09-27T19:36:13.289Z,98608.78
2022-09-27T19:38:41.139Z,98602.28
2022-09-27T19:41:09.608Z,98609.34
2022-09-27T19:43:37.629Z,98615.78
2022-09-27T19:46:07.573Z,98603.13
2022-09-27T19:48:36.829Z,98607.69
2022-09-27T19:51:05.138Z,98608.53
2022-09-27T19:53:33.231Z,98604.72
2022-09-27T19:56:01.352Z,98613.66
2022-09-27T19:58:29.906Z,98622.56
2022-09-27T20:01:01.440Z,98621.75
2022-09-27T20:03:30.984Z,98619.88
2022-09-27T20:05:59.291Z,98625.03
2022-09-27T20:08:27.360Z,98620.69
2022-09-27T20:10:56.280Z,98615.28
2022-09-27T20:13:24.676Z,98623.41
2022-09-27T20:15:53.903Z,98620.41
2022-09-27T20:18:21.907Z,98622.88
2022-09-27T20:20:51.193Z,98628.28
2022-09-27T20:23:20.185Z,98654.22
2022-09-27T20:25:48.867Z,98680.19
2022-09-27T20:28:16.826Z,98669.38
2022-09-27T20:30:44.815Z,98652.88
2022-09-27T20:33:29.822Z,98641.25
2022-09-27T20:35:59.151Z,98698.03
2022-09-27T20:38:28.069Z,98699.16
2022-09-27T20:40:56.221Z,98670.47
2022-09-27T20:43:26.491Z,98688.88
2022-09-27T20:45:54.452Z,98685.13
2022-09-27T20:48:22.511Z,98677.00
2022-09-27T20:50:50.490Z,98683.47
2022-09-27T20:53:20.102Z,98689.97
2022-09-27T20:55:48.058Z,98685.63
2022-09-27T20:58:15.976Z,98693.22
2022-09-27T21:00:43.972Z,98696.16
2022-09-27T21:03:11.962Z,98704.56
2022-09-27T21:05:39.916Z,98703.19
2022-09-27T21:08:07.848Z,98704.53
2022-09-27T21:10:37.149Z,98704.78
2022-09-27T21:13:17.455Z,98715.84
2022-09-27T21:15:45.546Z,98706.13
2022-09-27T21:18:13.914Z,98707.47
2022-09-27T21:20:41.868Z,98706.66
2022-09-27T21:23:09.802Z,98702.31
2022-09-27T21:25:39.071Z,98699.88
2022-09-27T21:28:06.971Z,98707.19
2022-09-27T21:30:36.927Z,98703.94
2022-09-27T21:33:04.928Z,98712.28
2022-09-27T21:35:32.867Z,98728.50
2022-09-27T21:38:00.825Z,98726.09
2022-09-27T21:40:28.970Z,98734.44
2022-09-27T21:42:58.321Z,98740.13
2022-09-27T21:45:26.237Z,98743.91
2022-09-27T21:47:54.181Z,98732.53
2022-09-27T21:50:22.052Z,98741.72
2022-09-27T21:52:49.933Z,98736.84
2022-09-27T21:55:17.823Z,98743.34
2022-09-27T21:57:45.734Z,98744.38
2022-09-27T22:00:15.939Z,98757.34
2022-09-27T22:02:44.121Z,98747.63
2022-09-27T22:05:12.019Z,98753.28
2022-09-27T22:07:39.916Z,98752.47
2022-09-27T22:10:08.635Z,98754.59
2022-09-27T22:12:36.569Z,98750.28
2022-09-27T22:16:00.053Z,98750.28
2022-09-27T22:18:29.382Z,98748.13
2022-09-27T22:21:02.268Z,98756.22
2022-09-27T22:23:30.180Z,98754.56
2022-09-27T22:25:58.256Z,98750.25
2022-09-27T22:28:26.208Z,98751.34
2022-09-27T22:30:54.176Z,98754.03
2022-09-27T22:33:22.089Z,98739.97
2022-09-27T22:35:51.313Z,98734.56
2022-09-27T22:38:19.204Z,98739.16
2022-09-27T22:40:57.115Z,98736.72
2022-09-27T22:43:26.270Z,98740.50
2022-09-27T22:45:54.181Z,98744.25
2022-09-27T22:48:22.076Z,98743.44
2022-09-27T22:50:51.520Z,98736.44
2022-09-27T22:53:19.421Z,98731.28
2022-09-27T22:55:59.673Z,98729.66
2022-09-27T22:58:29.891Z,98744.22
2022-09-27T23:00:57.873Z,98746.09
2022-09-27T23:03:25.802Z,98751.78
2022-09-27T23:05:55.150Z,98742.03
2022-09-27T23:08:23.076Z,98750.41
2022-09-27T23:10:50.962Z,98750.41
2022-09-27T23:13:19.318Z,98747.94
2022-09-27T23:15:47.303Z,98740.09
2022-09-27T23:18:15.266Z,98743.84
2022-09-27T23:20:43.852Z,98743.84
2022-09-27T23:23:15.433Z,98746.84
2022-09-27T23:25:43.306Z,98756.00
2022-09-27T23:28:11.244Z,98765.19
2022-09-27T23:30:39.202Z,98756.28
2022-09-27T23:33:08.371Z,98768.94
2022-09-27T23:35:36.266Z,98772.72
2022-09-27T23:38:04.139Z,98784.63
2022-09-27T23:40:35.949Z,98786.47
2022-09-27T23:43:04.576Z,98796.47
2022-09-27T23:45:33.427Z,98792.97
2022-09-27T23:48:02.080Z,98800.25
2022-09-27T23:50:31.036Z,98804.84
2022-09-27T23:52:59.137Z,98809.44
2022-09-27T23:55:27.078Z,98816.97
2022-09-27T23:57:56.688Z,98822.38
